Time;durP1;ratioP1;P1;durP2;ratioP2;P2;SDS_P1;SDS_P2;PMS_P1;PMS_P2;Temp;Humidity;BMP_temperature;BMP_pressure;BME280_temperature;BME280_humidity;BME280_pressure;Samples;Min_cycle;Max_cycle;Signal;HPM_P1;HPM_P2
2023/02/17 00:00:03;;;;;;;;;;;;;;;;;;5094050;28;1423;-46
2023/02/17 00:02:30;;;;;;;;;;;;;;;;;;5093923;28;2072;-43
2023/02/17 00:04:57;;;;;;;;;;;;;;;;;;5094151;28;1871;-47
2023/02/17 00:07:30;;;;;;;;;;;;;;;;;;5093904;28;1508;-46
2023/02/17 00:10:01;;;;;;;;;;;;;;;;;;5094112;28;1884;-42
2023/02/17 00:12:28;;;;;;;;;;;;;;;;;;5094015;28;2157;-42
2023/02/17 00:14:56;;;;;;;;;;;;;;;;;;5093830;28;2283;-44
2023/02/17 00:17:23;;;;;;;;;;;;;;;;;;5093673;28;2215;-44
2023/02/17 00:19:52;;;;;;;;;;;;;;;;;;5093772;28;1436;-43
2023/02/17 00:22:19;;;;;;;;;;;;;;;;;;5093409;28;1692;-44
2023/02/17 00:24:46;;;;;;;;;;;;;;;;;;5093366;28;2210;-41
2023/02/17 00:27:13;;;;;;;;;;;;;;;;;;5093552;28;1911;-43
2023/02/17 00:29:41;;;;;;;;;;;;;;;;;;5093344;28;1975;-43
2023/02/17 00:32:09;;;;;;;;;;;;;;;;;;5093519;28;1971;-46
2023/02/17 00:34:37;;;;;;;;;;;;;;;;;;5093158;28;1905;-44
2023/02/17 00:37:05;;;;;;;;;;;;;;;;;;5075403;28;1893;-43
2023/02/17 00:39:32;;;;;;;;;;;;;;;;;;5075363;28;1925;-44
2023/02/17 00:42:00;;;;;;;;;;;;;;;;;;5093583;28;1971;-44
2023/02/17 00:44:28;;;;;;;;;;;;;;;;;;5093081;28;2115;-46
2023/02/17 00:46:56;;;;;;;;;;;;;;;;;;5074910;28;2424;-44
2023/02/17 00:49:24;;;;;;;;;;;;;;;;;;5093205;28;1711;-43
2023/02/17 00:51:53;;;;;;;;;;;;;;;;;;5074780;28;1841;-43
2023/02/17 00:54:20;;;;;;;;;;;;;;;;;;5093033;28;1971;-39
2023/02/17 00:56:47;;;;;;;;;;;;;;;;;;5092774;28;2043;-43
2023/02/17 00:59:14;;;;;;;;;;;;;;;;;;5074779;28;2029;-46
2023/02/17 01:01:42;;;;;;;;;;;;;;;;;;5092924;28;1266;-45
2023/02/17 01:04:09;;;;;;;;;;;;;;;;;;5110180;28;2042;-42
2023/02/17 01:06:37;;;;;;;;;;;;;;;;;;5111954;28;1767;-40
2023/02/17 01:09:07;;;;;;;;;;;;;;;;;;5113165;28;1694;-39
2023/02/17 01:11:35;;;;;;;;;;;;;;;;;;5113098;28;1776;-40
2023/02/17 01:14:05;;;;;;;;;;;;;;;;;;5113116;28;1908;-45
2023/02/17 01:16:35;;;;;;;;;;;;;;;;;;5095001;28;1890;-43
2023/02/17 01:19:03;;;;;;;;;;;;;;;;;;5094778;28;1725;-45
2023/02/17 01:21:31;;;;;;;;;;;;;;;;;;5112898;28;1830;-45
2023/02/17 01:23:59;;;;;;;;;;;;;;;;;;5112787;28;1945;-45
2023/02/17 01:26:28;;;;;;;;;;;;;;;;;;5112747;28;1205;-44
2023/02/17 01:28:58;;;;;;;;;;;;;;;;;;5112761;28;1867;-40
2023/02/17 01:31:26;;;;;;;;;;;;;;;;;;5094447;28;2081;-46
2023/02/17 01:33:58;;;;;;;;;;;;;;;;;;5112321;28;1942;-43
2023/02/17 01:36:25;;;;;;;;;;;;;;;;;;5112488;28;2018;-46
2023/02/17 01:38:53;;;;;;;;;;;;;;;;;;5094186;28;1746;-44
2023/02/17 01:41:21;;;;;;;;;;;;;;;;;;5112430;28;1990;-44
2023/02/17 01:44:09;;;;;;;;;;;;;;;;;;5112623;28;1462;-46
2023/02/17 01:46:37;;;;;;;;;;;;;;;;;;5112641;28;2013;-43
2023/02/17 01:49:09;;;;;;;;;;;;;;;;;;5112461;28;1834;-42
2023/02/17 01:51:37;;;;;;;;;;;;;;;;;;5112540;28;1652;-47
2023/02/17 01:54:26;;;;;;;;;;;;;;;;;;5094194;28;1969;-47
2023/02/17 01:56:54;;;;;;;;;;;;;;;;;;5093661;28;2114;-44
2023/02/17 01:59:21;;;;;;;;;;;;;;;;;;5093655;28;1961;-47
2023/02/17 02:01:51;;;;;;;;;;;;;;;;;;5093485;28;2222;-42
2023/02/17 02:04:21;;;;;;;;;;;;;;;;;;5093160;28;1403;-44
2023/02/17 02:06:48;;;;;;;;;;;;;;;;;;5091669;28;1890;-43
2023/02/17 02:09:19;;;;;;;;;;;;;;;;;;5091637;28;1890;-43
2023/02/17 02:11:49;;;;;;;;;;;;;;;;;;5073370;28;2139;-43
2023/02/17 02:14:18;;;;;;;;;;;;;;;;;;5089442;28;1917;-44
2023/02/17 02:17:03;;;;;;;;;;;;;;;;;;5111457;28;1484;-42
2023/02/17 02:19:34;;;;;;;;;;;;;;;;;;5111919;28;2095;-42
2023/02/17 02:22:07;;;;;;;;;;;;;;;;;;5111823;28;1698;-47
2023/02/17 02:24:43;;;;;;;;;;;;;;;;;;5093513;28;2097;-40
2023/02/17 02:27:10;;;;;;;;;;;;;;;;;;5111606;28;1842;-41
2023/02/17 02:29:56;;;;;;;;;;;;;;;;;;5093570;28;1870;-44
2023/02/17 02:32:42;;;;;;;;;;;;;;;;;;5111748;28;1989;-43
2023/02/17 02:35:14;;;;;;;;;;;;;;;;;;5111593;28;1999;-46
2023/02/17 02:37:44;;;;;;;;;;;;;;;;;;5093504;28;2369;-39
2023/02/17 02:40:13;;;;;;;;;;;;;;;;;;5111540;28;1951;-41
2023/02/17 02:42:41;;;;;;;;;;;;;;;;;;5089789;28;2192;-42
2023/02/17 02:45:10;;;;;;;;;;;;;;;;;;5091300;28;2090;-43
2023/02/17 02:47:43;;;;;;;;;;;;;;;;;;5073257;28;2132;-42
2023/02/17 02:50:15;;;;;;;;;;;;;;;;;;5073011;28;2149;-41
2023/02/17 02:52:50;;;;;;;;;;;;;;;;;;5073050;28;2445;-42
2023/02/17 02:55:23;;;;;;;;;;;;;;;;;;5073073;28;2236;-44
2023/02/17 02:58:26;;;;;;;;;;;;;;;;;;5072674;28;2352;-45
2023/02/17 03:00:53;;;;;;;;;;;;;;;;;;5015376;28;1774;-46
2023/02/17 03:03:28;;;;;;;;;;;;;;;;;;5082913;28;1642;-44
2023/02/17 03:05:55;;;;;;;;;;;;;;;;;;5090941;28;1544;-39
2023/02/17 03:08:35;;;;;;;;;;;;;;;;;;5090569;28;2188;-44
2023/02/17 03:11:02;;;;;;;;;;;;;;;;;;5090898;28;2165;-46
2023/02/17 03:13:38;;;;;;;;;;;;;;;;;;5090823;28;1928;-42
2023/02/17 03:16:10;;;;;;;;;;;;;;;;;;5090957;28;1619;-44
2023/02/17 03:18:38;;;;;;;;;;;;;;;;;;5090809;28;2235;-47
2023/02/17 03:21:10;;;;;;;;;;;;;;;;;;5072663;28;1733;-42
2023/02/17 03:23:37;;;;;;;;;;;;;;;;;;5072513;28;2096;-45
2023/02/17 03:26:05;;;;;;;;;;;;;;;;;;5090714;28;1911;-46
2023/02/17 03:28:32;;;;;;;;;;;;;;;;;;5072732;28;2284;-44
2023/02/17 03:31:00;;;;;;;;;;;;;;;;;;5076123;28;1742;-44
2023/02/17 03:33:27;;;;;;;;;;;;;;;;;;5094628;28;1357;-46
2023/02/17 03:35:54;;;;;;;;;;;;;;;;;;5094318;28;2040;-45
2023/02/17 03:38:21;;;;;;;;;;;;;;;;;;5094497;28;1895;-41
2023/02/17 03:40:48;;;;;;;;;;;;;;;;;;5094685;28;1613;-43
2023/02/17 03:43:16;;;;;;;;;;;;;;;;;;5094417;28;1886;-43
2023/02/17 03:45:43;;;;;;;;;;;;;;;;;;5107446;28;2061;-43
2023/02/17 03:48:11;;;;;;;;;;;;;;;;;;5114837;28;1936;-43
2023/02/17 03:50:38;;;;;;;;;;;;;;;;;;5114852;28;2167;-45
2023/02/17 03:53:05;;;;;;;;;;;;;;;;;;5114787;28;2026;-44
2023/02/17 03:55:34;;;;;;;;;;;;;;;;;;5114452;28;2190;-44
2023/02/17 03:58:01;;;;;;;;;;;;;;;;;;5114442;28;1533;-43
2023/02/17 04:00:28;;;;;;;;;;;;;;;;;;5114324;28;1657;-44
2023/02/17 04:02:58;;;;;;;;;;;;;;;;;;5106859;28;1881;-44
2023/02/17 04:05:25;;;;;;;;;;;;;;;;;;5093665;28;1934;-45
2023/02/17 04:07:52;;;;;;;;;;;;;;;;;;5093890;28;1739;-42
2023/02/17 04:10:20;;;;;;;;;;;;;;;;;;5093836;28;1687;-40
2023/02/17 04:12:47;;;;;;;;;;;;;;;;;;5093746;28;2070;-41
2023/02/17 04:15:14;;;;;;;;;;;;;;;;;;5094035;28;2053;-43
2023/02/17 04:17:41;;;;;;;;;;;;;;;;;;5093862;28;2124;-43
2023/02/17 04:20:08;;;;;;;;;;;;;;;;;;5093800;28;1950;-45
2023/02/17 04:22:36;;;;;;;;;;;;;;;;;;5093471;28;1926;-41
2023/02/17 04:25:03;;;;;;;;;;;;;;;;;;5093219;28;1984;-40
2023/02/17 04:27:30;;;;;;;;;;;;;;;;;;5093185;28;2237;-43
2023/02/17 04:29:57;;;;;;;;;;;;;;;;;;5093221;28;1999;-42
2023/02/17 04:32:24;;;;;;;;;;;;;;;;;;5093316;28;1455;-43
2023/02/17 04:34:52;;;;;;;;;;;;;;;;;;5093192;28;1993;-40
2023/02/17 04:37:19;;;;;;;;;;;;;;;;;;5093213;28;2101;-41
2023/02/17 04:39:46;;;;;;;;;;;;;;;;;;5092937;28;1489;-46
2023/02/17 04:42:13;;;;;;;;;;;;;;;;;;5093271;28;1915;-43
2023/02/17 04:44:41;;;;;;;;;;;;;;;;;;5093430;28;1811;-42
2023/02/17 04:47:08;;;;;;;;;;;;;;;;;;5093302;28;1442;-42
2023/02/17 04:49:35;;;;;;;;;;;;;;;;;;5092940;28;1988;-41
2023/02/17 04:52:03;;;;;;;;;;;;;;;;;;5093263;28;1991;-43
2023/02/17 04:54:30;;;;;;;;;;;;;;;;;;5092687;28;1902;-42
2023/02/17 04:56:57;;;;;;;;;;;;;;;;;;5092980;28;1890;-42
2023/02/17 04:59:24;;;;;;;;;;;;;;;;;;5093114;28;2255;-43
2023/02/17 05:01:51;;;;;;;;;;;;;;;;;;5092719;28;2151;-45
2023/02/17 05:04:19;;;;;;;;;;;;;;;;;;5112048;28;1994;-41
2023/02/17 05:06:46;;;;;;;;;;;;;;;;;;5112380;28;4439;-47
2023/02/17 05:09:13;;;;;;;;;;;;;;;;;;5047483;28;11233;-42
2023/02/17 05:11:41;;;;;;;;;;;;;;;;;;5092708;28;1983;-47
2023/02/17 05:14:08;;;;;;;;;;;;;;;;;;5092370;28;1915;-48
2023/02/17 05:16:35;;;;;;;;;;;;;;;;;;5092533;28;1931;-43
2023/02/17 05:19:02;;;;;;;;;;;;;;;;;;5092500;28;2017;-42
2023/02/17 05:21:30;;;;;;;;;;;;;;;;;;5092564;28;1883;-45
2023/02/17 05:23:57;;;;;;;;;;;;;;;;;;5092585;28;1813;-42
2023/02/17 05:26:24;;;;;;;;;;;;;;;;;;5092401;28;2040;-42
2023/02/17 05:28:51;;;;;;;;;;;;;;;;;;5091368;28;1780;-42
2023/02/17 05:31:18;;;;;;;;;;;;;;;;;;5090454;28;2186;-46
2023/02/17 05:33:46;;;;;;;;;;;;;;;;;;5091080;28;1609;-47
2023/02/17 05:36:13;;;;;;;;;;;;;;;;;;5091031;28;1973;-45
2023/02/17 05:38:40;;;;;;;;;;;;;;;;;;5091301;28;1886;-46
2023/02/17 05:41:07;;;;;;;;;;;;;;;;;;5091150;28;1668;-44
2023/02/17 05:43:34;;;;;;;;;;;;;;;;;;5091713;28;2066;-43
2023/02/17 05:46:02;;;;;;;;;;;;;;;;;;5091991;28;1678;-41
2023/02/17 05:48:29;;;;;;;;;;;;;;;;;;5073652;28;2134;-46
2023/02/17 05:50:57;;;;;;;;;;;;;;;;;;5091773;28;2131;-44
2023/02/17 05:53:24;;;;;;;;;;;;;;;;;;5071844;28;1273;-43
2023/02/17 05:55:51;;;;;;;;;;;;;;;;;;5071622;28;2096;-43
2023/02/17 05:58:18;;;;;;;;;;;;;;;;;;5071736;28;1870;-42
2023/02/17 06:00:46;;;;;;;;;;;;;;;;;;5071709;28;2008;-43
2023/02/17 06:03:13;;;;;;;;;;;;;;;;;;5080849;28;2167;-43
2023/02/17 06:05:41;;;;;;;;;;;;;;;;;;5091899;28;2011;-47
2023/02/17 06:08:08;;;;;;;;;;;;;;;;;;5091817;28;1757;-47
2023/02/17 06:10:35;;;;;;;;;;;;;;;;;;5092039;28;2070;-46
2023/02/17 06:13:02;;;;;;;;;;;;;;;;;;5091570;28;1579;-43
2023/02/17 06:15:29;;;;;;;;;;;;;;;;;;5091123;28;1998;-43
2023/02/17 06:17:57;;;;;;;;;;;;;;;;;;5091515;28;1986;-47
2023/02/17 06:20:24;;;;;;;;;;;;;;;;;;5091483;28;1563;-40
2023/02/17 06:22:52;;;;;;;;;;;;;;;;;;5091685;28;1905;-45
2023/02/17 06:25:19;;;;;;;;;;;;;;;;;;5073327;28;2213;-42
2023/02/17 06:27:47;;;;;;;;;;;;;;;;;;5091443;28;2159;-40
2023/02/17 06:30:14;;;;;;;;;;;;;;;;;;5091362;28;1938;-43
2023/02/17 06:32:42;;;;;;;;;;;;;;;;;;5091190;28;1656;-44
2023/02/17 06:35:09;;;;;;;;;;;;;;;;;;5090983;28;1906;-43
2023/02/17 06:37:36;;;;;;;;;;;;;;;;;;5091059;28;2125;-45
2023/02/17 06:40:03;;;;;;;;;;;;;;;;;;5091227;28;1634;-41
2023/02/17 06:42:30;;;;;;;;;;;;;;;;;;5091213;28;1714;-40
2023/02/17 06:44:59;;;;;;;;;;;;;;;;;;5091159;28;2315;-42
2023/02/17 06:47:26;;;;;;;;;;;;;;;;;;5091538;28;1410;-41
2023/02/17 06:49:54;;;;;;;;;;;;;;;;;;5091314;28;1945;-40
2023/02/17 06:52:21;;;;;;;;;;;;;;;;;;5091286;28;2013;-45
2023/02/17 06:54:48;;;;;;;;;;;;;;;;;;5091001;28;1917;-45
2023/02/17 06:57:15;;;;;;;;;;;;;;;;;;5091104;28;2339;-44
2023/02/17 06:59:42;;;;;;;;;;;;;;;;;;5091175;28;1685;-45
2023/02/17 07:02:11;;;;;;;;;;;;;;;;;;5090149;28;1737;-43
2023/02/17 07:04:39;;;;;;;;;;;;;;;;;;5074646;28;2187;-41
2023/02/17 07:07:06;;;;;;;;;;;;;;;;;;5075050;28;1690;-43
2023/02/17 07:09:33;;;;;;;;;;;;;;;;;;5075079;28;1999;-43
2023/02/17 07:12:01;;;;;;;;;;;;;;;;;;5074814;28;1680;-44
2023/02/17 07:14:28;;;;;;;;;;;;;;;;;;5074806;28;1966;-45
2023/02/17 07:16:55;;;;;;;;;;;;;;;;;;5074938;28;1984;-43
2023/02/17 07:19:22;;;;;;;;;;;;;;;;;;5074741;28;1362;-43
2023/02/17 07:21:49;;;;;;;;;;;;;;;;;;5074434;28;1737;-40
2023/02/17 07:24:16;;;;;;;;;;;;;;;;;;5056866;28;1976;-44
2023/02/17 07:26:44;;;;;;;;;;;;;;;;;;5074485;28;2122;-43
2023/02/17 07:29:11;;;;;;;;;;;;;;;;;;5074518;28;1845;-44
2023/02/17 07:31:38;;;;;;;;;;;;;;;;;;5074417;28;1509;-42
2023/02/17 07:34:05;;;;;;;;;;;;;;;;;;5074282;28;1849;-41
2023/02/17 07:36:32;;;;;;;;;;;;;;;;;;5074298;28;1948;-43
2023/02/17 07:38:59;;;;;;;;;;;;;;;;;;5074086;28;1564;-40
2023/02/17 07:41:31;;;;;;;;;;;;;;;;;;5074454;28;1838;-43
2023/02/17 07:44:06;;;;;;;;;;;;;;;;;;5074157;28;1927;-45
2023/02/17 07:46:34;;;;;;;;;;;;;;;;;;5074516;28;2010;-43
2023/02/17 07:49:01;;;;;;;;;;;;;;;;;;5074006;28;2080;-42
2023/02/17 07:51:28;;;;;;;;;;;;;;;;;;5074168;28;2308;-45
2023/02/17 07:53:55;;;;;;;;;;;;;;;;;;5074618;28;2059;-44
2023/02/17 07:56:23;;;;;;;;;;;;;;;;;;5073752;28;1942;-46
2023/02/17 07:58:50;;;;;;;;;;;;;;;;;;5073957;28;1578;-45
2023/02/17 08:01:21;;;;;;;;;;;;;;;;;;5073913;28;1991;-45
2023/02/17 08:03:48;;;;;;;;;;;;;;;;;;5073472;28;1662;-42
2023/02/17 08:06:17;;;;;;;;;;;;;;;;;;5073655;28;1775;-41
2023/02/17 08:14:16;;;;;;;;;;;;;;;;;;5073021;28;1693;-41
2023/02/17 08:16:43;;;;;;;;;;;;;;;;;;5073299;28;1908;-43
2023/02/17 08:19:11;;;;;;;;;;;;;;;;;;5073665;28;1885;-43
2023/02/17 08:21:38;;;;;;;;;;;;;;;;;;5073625;28;1835;-41
2023/02/17 08:24:05;;;;;;;;;;;;;;;;;;5073556;28;1912;-47
2023/02/17 08:26:32;;;;;;;;;;;;;;;;;;5073587;28;1692;-43
2023/02/17 08:28:59;;;;;;;;;;;;;;;;;;5073393;28;1998;-42
2023/02/17 08:31:28;;;;;;;;;;;;;;;;;;5073299;28;2180;-46
2023/02/17 08:33:56;;;;;;;;;;;;;;;;;;5073301;28;2259;-43
2023/02/17 08:36:23;;;;;;;;;;;;;;;;;;5073096;28;2056;-44
2023/02/17 08:38:51;;;;;;;;;;;;;;;;;;5073154;28;1672;-45
2023/02/17 08:41:22;;;;;;;;;;;;;;;;;;5073037;28;1832;-41
2023/02/17 08:43:50;;;;;;;;;;;;;;;;;;5073236;28;2059;-43
2023/02/17 08:46:18;;;;;;;;;;;;;;;;;;5073236;28;1881;-46
2023/02/17 08:48:45;;;;;;;;;;;;;;;;;;5073215;28;1845;-43
2023/02/17 08:51:13;;;;;;;;;;;;;;;;;;5073220;28;1788;-44
2023/02/17 08:53:41;;;;;;;;;;;;;;;;;;5073046;28;1715;-44
2023/02/17 08:56:08;;;;;;;;;;;;;;;;;;5072795;28;1950;-45
2023/02/17 08:58:35;;;;;;;;;;;;;;;;;;5072754;28;2109;-43
2023/02/17 09:01:03;;;;;;;;;;;;;;;;;;5072830;28;1943;-42
2023/02/17 09:03:32;;;;;;;;;;;;;;;;;;5085438;28;1801;-42
2023/02/17 09:06:00;;;;;;;;;;;;;;;;;;5092949;28;1994;-47
2023/02/17 09:08:27;;;;;;;;;;;;;;;;;;5092897;28;1518;-44
2023/02/17 09:10:54;;;;;;;;;;;;;;;;;;5092806;28;2082;-43
2023/02/17 09:13:21;;;;;;;;;;;;;;;;;;5092995;28;1795;-42
2023/02/17 09:15:52;;;;;;;;;;;;;;;;;;5092783;28;1994;-45
2023/02/17 09:18:20;;;;;;;;;;;;;;;;;;5092542;28;2025;-42
2023/02/17 09:20:47;;;;;;;;;;;;;;;;;;5092456;28;1984;-43
2023/02/17 09:23:15;;;;;;;;;;;;;;;;;;5092492;28;2004;-44
2023/02/17 09:25:42;;;;;;;;;;;;;;;;;;5092578;28;1708;-45
2023/02/17 09:28:10;;;;;;;;;;;;;;;;;;5091887;28;1651;-47
2023/02/17 09:30:37;;;;;;;;;;;;;;;;;;5092571;28;2027;-40
2023/02/17 09:33:04;;;;;;;;;;;;;;;;;;5092427;28;1855;-46
2023/02/17 09:35:31;;;;;;;;;;;;;;;;;;5092085;28;1978;-42
2023/02/17 09:37:59;;;;;;;;;;;;;;;;;;5092330;28;2277;-41
2023/02/17 09:40:47;;;;;;;;;;;;;;;;;;5092372;28;2172;-48
2023/02/17 09:43:15;;;;;;;;;;;;;;;;;;5092318;28;1867;-48
2023/02/17 09:45:45;;;;;;;;;;;;;;;;;;5092220;28;1919;-42
2023/02/17 09:48:13;;;;;;;;;;;;;;;;;;5092182;28;1767;-42
2023/02/17 09:50:44;;;;;;;;;;;;;;;;;;5092221;28;1503;-43
2023/02/17 09:53:11;;;;;;;;;;;;;;;;;;5091827;28;1892;-46
2023/02/17 09:55:41;;;;;;;;;;;;;;;;;;5092066;28;1893;-43
2023/02/17 09:58:21;;;;;;;;;;;;;;;;;;5074046;28;2208;-45
2023/02/17 10:01:11;;;;;;;;;;;;;;;;;;5085535;28;2111;-41
2023/02/17 10:03:45;;;;;;;;;;;;;;;;;;5063936;28;1898;-39
2023/02/17 10:06:23;;;;;;;;;;;;;;;;;;5071254;28;1681;-44
2023/02/17 10:08:54;;;;;;;;;;;;;;;;;;5071480;28;1971;-40
2023/02/17 10:11:32;;;;;;;;;;;;;;;;;;5071244;28;2597;-45
2023/02/17 10:14:03;;;;;;;;;;;;;;;;;;5071428;28;1805;-45
2023/02/17 10:16:35;;;;;;;;;;;;;;;;;;5071230;28;1907;-47
2023/02/17 10:19:20;;;;;;;;;;;;;;;;;;5071505;28;1851;-44
2023/02/17 10:21:56;;;;;;;;;;;;;;;;;;5071332;28;2103;-42
2023/02/17 10:24:23;;;;;;;;;;;;;;;;;;5071443;28;1243;-41
2023/02/17 10:26:53;;;;;;;;;;;;;;;;;;5071426;28;1605;-44
2023/02/17 10:29:21;;;;;;;;;;;;;;;;;;5071353;28;1961;-41
2023/02/17 10:32:03;;;;;;;;;;;;;;;;;;5071059;28;2129;-43
2023/02/17 10:34:35;;;;;;;;;;;;;;;;;;5070964;28;1718;-46
2023/02/17 10:37:20;;;;;;;;;;;;;;;;;;5071063;28;1910;-46
2023/02/17 10:39:49;;;;;;;;;;;;;;;;;;5071039;28;2015;-42
2023/02/17 10:42:35;;;;;;;;;;;;;;;;;;5071148;28;1808;-40
2023/02/17 10:45:12;;;;;;;;;;;;;;;;;;5071283;28;1701;-46
2023/02/17 10:47:39;;;;;;;;;;;;;;;;;;5070165;28;1932;-43
2023/02/17 10:50:13;;;;;;;;;;;;;;;;;;5071217;28;1873;-44
2023/02/17 10:52:40;;;;;;;;;;;;;;;;;;5070971;28;1762;-45
2023/02/17 10:55:12;;;;;;;;;;;;;;;;;;5070126;28;2089;-45
2023/02/17 10:57:52;;;;;;;;;;;;;;;;;;5071069;28;2211;-42
2023/02/17 11:00:20;;;;;;;;;;;;;;;;;;5070986;28;1622;-43
2023/02/17 11:02:50;;;;;;;;;;;;;;;;;;5076784;28;1725;-47
2023/02/17 11:05:21;;;;;;;;;;;;;;;;;;5091085;28;2110;-46
2023/02/17 11:07:53;;;;;;;;;;;;;;;;;;5091138;28;1536;-42
2023/02/17 11:10:23;;;;;;;;;;;;;;;;;;5091054;28;1647;-43
2023/02/17 11:12:51;;;;;;;;;;;;;;;;;;5091141;28;1871;-45
2023/02/17 11:15:19;;;;;;;;;;;;;;;;;;5091131;28;1236;-42
2023/02/17 11:17:46;;;;;;;;;;;;;;;;;;5090565;28;2178;-46
2023/02/17 11:20:14;;;;;;;;;;;;;;;;;;5091439;28;1914;-42
2023/02/17 11:22:44;;;;;;;;;;;;;;;;;;5091306;28;1646;-43
2023/02/17 11:25:20;;;;;;;;;;;;;;;;;;5091197;28;1709;-45
2023/02/17 11:27:52;;;;;;;;;;;;;;;;;;5090887;28;1832;-43
2023/02/17 11:30:19;;;;;;;;;;;;;;;;;;5090699;28;2061;-41
2023/02/17 11:32:47;;;;;;;;;;;;;;;;;;5091138;28;1995;-39
2023/02/17 11:35:41;;;;;;;;;;;;;;;;;;5090897;28;2151;-43
2023/02/17 11:38:11;;;;;;;;;;;;;;;;;;5090861;28;1792;-42
2023/02/17 11:40:38;;;;;;;;;;;;;;;;;;5090775;28;1975;-44
2023/02/17 11:43:14;;;;;;;;;;;;;;;;;;5090964;28;2119;-42
2023/02/17 11:45:47;;;;;;;;;;;;;;;;;;5091153;28;1992;-41
2023/02/17 11:48:30;;;;;;;;;;;;;;;;;;5091051;28;1972;-43
2023/02/17 11:51:00;;;;;;;;;;;;;;;;;;5092946;28;1662;-45
2023/02/17 11:53:30;;;;;;;;;;;;;;;;;;5094500;28;1985;-43
2023/02/17 11:56:05;;;;;;;;;;;;;;;;;;5094223;28;1976;-43
2023/02/17 11:58:51;;;;;;;;;;;;;;;;;;5094367;28;1640;-44
2023/02/17 12:01:37;;;;;;;;;;;;;;;;;;5094242;28;1456;-42
2023/02/17 12:04:23;;;;;;;;;;;;;;;;;;5077040;28;1649;-43
2023/02/17 12:06:50;;;;;;;;;;;;;;;;;;5074028;28;1890;-45
2023/02/17 12:09:32;;;;;;;;;;;;;;;;;;5073861;28;1899;-39
2023/02/17 12:12:15;;;;;;;;;;;;;;;;;;5073593;28;1589;-44
2023/02/17 12:15:02;;;;;;;;;;;;;;;;;;5073587;28;1790;-43
2023/02/17 12:17:29;;;;;;;;;;;;;;;;;;5073528;28;1906;-41
2023/02/17 12:20:08;;;;;;;;;;;;;;;;;;5073589;28;2134;-45
2023/02/17 12:22:56;;;;;;;;;;;;;;;;;;5073255;28;1950;-45
2023/02/17 12:25:30;;;;;;;;;;;;;;;;;;5073559;28;1929;-43
2023/02/17 12:28:16;;;;;;;;;;;;;;;;;;5073599;28;1714;-40
2023/02/17 12:30:55;;;;;;;;;;;;;;;;;;5073455;28;1726;-43
2023/02/17 12:33:32;;;;;;;;;;;;;;;;;;5073228;28;1849;-43
2023/02/17 12:36:18;;;;;;;;;;;;;;;;;;5073224;28;1918;-44
2023/02/17 12:39:14;;;;;;;;;;;;;;;;;;5074035;28;1708;-45
2023/02/17 12:41:45;;;;;;;;;;;;;;;;;;5064001;28;2100;-45
2023/02/17 12:44:31;;;;;;;;;;;;;;;;;;5073193;28;1596;-40
2023/02/17 12:47:10;;;;;;;;;;;;;;;;;;5073054;28;2110;-42
2023/02/17 12:50:13;;;;;;;;;;;;;;;;;;5072889;28;1576;-42
2023/02/17 12:52:43;;;;;;;;;;;;;;;;;;5030677;28;1811;-44
2023/02/17 12:55:16;;;;;;;;;;;;;;;;;;5048214;28;1945;-43
2023/02/17 12:57:54;;;;;;;;;;;;;;;;;;5073074;28;1958;-42
2023/02/17 13:00:33;;;;;;;;;;;;;;;;;;5072420;28;1968;-41
2023/02/17 13:03:02;;;;;;;;;;;;;;;;;;5059268;28;1854;-43
2023/02/17 13:05:32;;;;;;;;;;;;;;;;;;5072446;28;2030;-42
2023/02/17 13:08:09;;;;;;;;;;;;;;;;;;5072702;28;1846;-45
2023/02/17 13:10:38;;;;;;;;;;;;;;;;;;5072633;28;2007;-45
2023/02/17 13:13:23;;;;;;;;;;;;;;;;;;5072729;28;1857;-43
2023/02/17 13:16:00;;;;;;;;;;;;;;;;;;5072576;28;1621;-45
2023/02/17 13:18:29;;;;;;;;;;;;;;;;;;5072685;28;2257;-44
2023/02/17 13:20:58;;;;;;;;;;;;;;;;;;5072627;28;1822;-41
2023/02/17 13:23:34;;;;;;;;;;;;;;;;;;5092720;28;1662;-46
2023/02/17 13:26:21;;;;;;;;;;;;;;;;;;5092538;28;1866;-43
2023/02/17 13:28:50;;;;;;;;;;;;;;;;;;5092508;28;1670;-44
2023/02/17 13:31:17;;;;;;;;;;;;;;;;;;5092496;28;2157;-40
2023/02/17 13:33:46;;;;;;;;;;;;;;;;;;5092326;28;1976;-40
2023/02/17 13:36:19;;;;;;;;;;;;;;;;;;5092577;28;1910;-51
2023/02/17 13:38:55;;;;;;;;;;;;;;;;;;5092328;28;1724;-48
2023/02/17 13:41:22;;;;;;;;;;;;;;;;;;5092592;28;1546;-45
2023/02/17 13:43:49;;;;;;;;;;;;;;;;;;5074400;28;1824;-41
2023/02/17 13:46:24;;;;;;;;;;;;;;;;;;5092169;28;1829;-46
2023/02/17 13:48:59;;;;;;;;;;;;;;;;;;5092523;28;2163;-40
2023/02/17 13:51:28;;;;;;;;;;;;;;;;;;5072206;28;1959;-44
2023/02/17 13:53:55;;;;;;;;;;;;;;;;;;5071545;28;1695;-44
2023/02/17 13:56:25;;;;;;;;;;;;;;;;;;5071730;28;1991;-41
2023/02/17 13:58:53;;;;;;;;;;;;;;;;;;5071506;28;1831;-41
2023/02/17 14:01:25;;;;;;;;;;;;;;;;;;5071830;28;2103;-43
2023/02/17 14:03:58;;;;;;;;;;;;;;;;;;5086753;28;1809;-47
2023/02/17 14:06:32;;;;;;;;;;;;;;;;;;5091884;28;1468;-43
2023/02/17 14:08:59;;;;;;;;;;;;;;;;;;5091747;28;2075;-43
2023/02/17 14:11:27;;;;;;;;;;;;;;;;;;5091828;28;1828;-43
2023/02/17 14:13:56;;;;;;;;;;;;;;;;;;5091287;28;1858;-43
2023/02/17 14:16:33;;;;;;;;;;;;;;;;;;5092142;28;2068;-45
2023/02/17 14:19:11;;;;;;;;;;;;;;;;;;5091517;28;1992;-46
2023/02/17 14:21:40;;;;;;;;;;;;;;;;;;5091556;28;1984;-44
2023/02/17 14:24:22;;;;;;;;;;;;;;;;;;5091514;28;1955;-44
2023/02/17 14:26:49;;;;;;;;;;;;;;;;;;5089826;28;1454;-45
2023/02/17 14:29:16;;;;;;;;;;;;;;;;;;5091272;28;1949;-45
2023/02/17 14:31:49;;;;;;;;;;;;;;;;;;5073002;28;2438;-45
2023/02/17 14:34:19;;;;;;;;;;;;;;;;;;5091281;28;1502;-44
2023/02/17 14:36:46;;;;;;;;;;;;;;;;;;5091254;28;1903;-43
2023/02/17 14:39:14;;;;;;;;;;;;;;;;;;5089181;28;2082;-43
2023/02/17 14:41:41;;;;;;;;;;;;;;;;;;5091225;28;2136;-47
2023/02/17 14:44:09;;;;;;;;;;;;;;;;;;5091153;28;1808;-44
2023/02/17 14:46:36;;;;;;;;;;;;;;;;;;5091102;28;1598;-41
2023/02/17 14:49:03;;;;;;;;;;;;;;;;;;5091027;28;2148;-48
2023/02/17 14:51:32;;;;;;;;;;;;;;;;;;5091076;28;2161;-43
2023/02/17 14:54:01;;;;;;;;;;;;;;;;;;5090953;28;1666;-46
2023/02/17 14:56:33;;;;;;;;;;;;;;;;;;5091035;28;1841;-44
2023/02/17 14:59:01;;;;;;;;;;;;;;;;;;5091207;28;1828;-43
2023/02/17 15:01:29;;;;;;;;;;;;;;;;;;5091023;28;2156;-43
2023/02/17 15:03:57;;;;;;;;;;;;;;;;;;5075439;28;2223;-39
2023/02/17 15:06:26;;;;;;;;;;;;;;;;;;5071149;28;2031;-41
2023/02/17 15:08:57;;;;;;;;;;;;;;;;;;5070999;28;1952;-42
2023/02/17 15:11:29;;;;;;;;;;;;;;;;;;5088683;28;1660;-42
2023/02/17 15:13:56;;;;;;;;;;;;;;;;;;5091235;28;2150;-45
2023/02/17 15:16:24;;;;;;;;;;;;;;;;;;5091213;28;2208;-45
2023/02/17 15:18:51;;;;;;;;;;;;;;;;;;5090784;28;2212;-46
2023/02/17 15:21:28;;;;;;;;;;;;;;;;;;5091001;28;1661;-41
2023/02/17 15:23:56;;;;;;;;;;;;;;;;;;5090861;28;1855;-43
2023/02/17 15:26:24;;;;;;;;;;;;;;;;;;5094316;28;1465;-48
2023/02/17 15:28:51;;;;;;;;;;;;;;;;;;5094765;28;1703;-44
2023/02/17 15:31:20;;;;;;;;;;;;;;;;;;5094648;28;2121;-47
2023/02/17 15:34:08;;;;;;;;;;;;;;;;;;5094385;28;1620;-42
2023/02/17 15:36:35;;;;;;;;;;;;;;;;;;5094548;28;1942;-41
2023/02/17 15:39:02;;;;;;;;;;;;;;;;;;5094350;28;2008;-41
2023/02/17 15:41:29;;;;;;;;;;;;;;;;;;5094375;28;1935;-40
2023/02/17 15:43:57;;;;;;;;;;;;;;;;;;5095205;28;2033;-45
2023/02/17 15:46:28;;;;;;;;;;;;;;;;;;5094822;28;1727;-40
2023/02/17 15:48:55;;;;;;;;;;;;;;;;;;5094599;28;1780;-41
2023/02/17 15:51:23;;;;;;;;;;;;;;;;;;5094520;28;1744;-47
2023/02/17 15:53:51;;;;;;;;;;;;;;;;;;5076049;28;2204;-42
2023/02/17 15:56:22;;;;;;;;;;;;;;;;;;5094385;28;1854;-43
2023/02/17 15:58:49;;;;;;;;;;;;;;;;;;5093837;28;2057;-41
2023/02/17 16:01:36;;;;;;;;;;;;;;;;;;5093808;28;1921;-40
2023/02/17 16:04:05;;;;;;;;;;;;;;;;;;5076530;28;2049;-52
2023/02/17 16:06:32;;;;;;;;;;;;;;;;;;5073445;28;1804;-46
2023/02/17 16:08:59;;;;;;;;;;;;;;;;;;5073986;28;2135;-42
2023/02/17 16:11:27;;;;;;;;;;;;;;;;;;5073626;28;1874;-45
2023/02/17 16:13:54;;;;;;;;;;;;;;;;;;5073752;28;1644;-44
2023/02/17 16:16:31;;;;;;;;;;;;;;;;;;5073493;28;1830;-41
2023/02/17 16:18:59;;;;;;;;;;;;;;;;;;5073490;28;2272;-42
2023/02/17 16:21:26;;;;;;;;;;;;;;;;;;5055336;28;2006;-42
2023/02/17 16:23:58;;;;;;;;;;;;;;;;;;5073625;28;1983;-47
2023/02/17 16:26:27;;;;;;;;;;;;;;;;;;5073435;28;1878;-42
2023/02/17 16:28:55;;;;;;;;;;;;;;;;;;5073502;28;1909;-42
2023/02/17 16:31:22;;;;;;;;;;;;;;;;;;5073257;28;1481;-44
2023/02/17 16:33:50;;;;;;;;;;;;;;;;;;5073081;28;1721;-47
2023/02/17 16:36:19;;;;;;;;;;;;;;;;;;5072723;28;1640;-47
2023/02/17 16:38:49;;;;;;;;;;;;;;;;;;5073005;28;1940;-42
2023/02/17 16:41:18;;;;;;;;;;;;;;;;;;5073091;28;2336;-44
2023/02/17 16:43:45;;;;;;;;;;;;;;;;;;5073334;28;1985;-44
2023/02/17 16:46:19;;;;;;;;;;;;;;;;;;5073054;28;1833;-43
2023/02/17 16:48:46;;;;;;;;;;;;;;;;;;5073147;28;2202;-45
2023/02/17 16:51:13;;;;;;;;;;;;;;;;;;5072997;28;1754;-44
2023/02/17 16:53:41;;;;;;;;;;;;;;;;;;5072697;28;2145;-41
2023/02/17 16:56:13;;;;;;;;;;;;;;;;;;5073030;28;1577;-47
2023/02/17 16:58:41;;;;;;;;;;;;;;;;;;5072538;28;2174;-43
2023/02/17 17:01:11;;;;;;;;;;;;;;;;;;5072862;28;1795;-35
2023/02/17 17:03:39;;;;;;;;;;;;;;;;;;5085565;28;2160;-47
2023/02/17 17:06:26;;;;;;;;;;;;;;;;;;5093147;28;1464;-39
2023/02/17 17:08:53;;;;;;;;;;;;;;;;;;5067091;28;1687;-40
2023/02/17 17:11:22;;;;;;;;;;;;;;;;;;5070821;28;1783;-45
2023/02/17 17:13:50;;;;;;;;;;;;;;;;;;5036012;28;1962;-43
2023/02/17 17:16:22;;;;;;;;;;;;;;;;;;5070504;28;1761;-45
2023/02/17 17:18:49;;;;;;;;;;;;;;;;;;5052572;28;1978;-42
2023/02/17 17:21:17;;;;;;;;;;;;;;;;;;5070350;28;2242;-42
2023/02/17 17:23:45;;;;;;;;;;;;;;;;;;5052395;28;2365;-43
2023/02/17 17:26:18;;;;;;;;;;;;;;;;;;5071520;28;1756;-42
2023/02/17 17:28:49;;;;;;;;;;;;;;;;;;5072092;28;1800;-40